Terminal Aerodrome Forecast
Issued by NWS

Home | Current Version | Previous Version | Text Only | Print | Product List | Glossary On
Versions: 1 2 3 4 5 6 7 8 9 10 11 12 13 14 15 16 17 18 19 20 21 22 23 24 25 26 27 28 29 30 31 32 33 34 35 36 37 38 39 40 41 42 43 44 45 46 47 48 49 50
938
FTUS46 KOTX 231631 AAB
TAFMWH
TAF AMD
KMWH 231631Z 2317/2412 01004KT 1/4SM FG BKN002 WS020/21035KT
     FM231800 21010G16KT P6SM BKN050 OVC100
     FM232100 23021G32KT P6SM SCT060 SCT100
     FM240000 25014G24KT P6SM FEW250
     FM240600 23012KT 4SM BR SKC=

USA.gov is the U.S. government's official web portal to all federal, state and local government web resources and services.